sensor_id;sensor_type;location;lat;lon;timestamp;P1;durP1;ratioP1;P2;durP2;ratioP2
76053;SDS011;64752;48.870;9.082;2022-11-11T00:01:04;35.03;;;18.48;;
76053;SDS011;64752;48.870;9.082;2022-11-11T00:03:29;26.85;;;14.35;;
76053;SDS011;64752;48.870;9.082;2022-11-11T00:05:59;34.47;;;16.98;;
76053;SDS011;64752;48.870;9.082;2022-11-11T00:08:32;25.80;;;13.57;;
76053;SDS011;64752;48.870;9.082;2022-11-11T00:13:31;31.98;;;13.23;;
76053;SDS011;64752;48.870;9.082;2022-11-11T00:16:04;33.90;;;17.20;;
76053;SDS011;64752;48.870;9.082;2022-11-11T00:18:30;31.23;;;16.02;;
76053;SDS011;64752;48.870;9.082;2022-11-11T00:21:14;25.23;;;12.63;;
76053;SDS011;64752;48.870;9.082;2022-11-11T00:23:58;26.20;;;13.27;;
76053;SDS011;64752;48.870;9.082;2022-11-11T00:26:42;20.83;;;11.55;;
76053;SDS011;64752;48.870;9.082;2022-11-11T00:29:07;25.23;;;13.65;;
76053;SDS011;64752;48.870;9.082;2022-11-11T00:31:33;30.88;;;13.63;;
76053;SDS011;64752;48.870;9.082;2022-11-11T00:33:59;30.60;;;13.70;;
76053;SDS011;64752;48.870;9.082;2022-11-11T00:36:25;25.98;;;11.65;;
76053;SDS011;64752;48.870;9.082;2022-11-11T00:38:50;28.25;;;13.32;;
76053;SDS011;64752;48.870;9.082;2022-11-11T00:41:21;28.52;;;13.88;;
76053;SDS011;64752;48.870;9.082;2022-11-11T00:43:51;24.63;;;12.77;;
76053;SDS011;64752;48.870;9.082;2022-11-11T00:46:16;28.63;;;13.00;;
76053;SDS011;64752;48.870;9.082;2022-11-11T00:49:00;29.88;;;13.70;;
76053;SDS011;64752;48.870;9.082;2022-11-11T00:51:44;23.92;;;13.20;;
76053;SDS011;64752;48.870;9.082;2022-11-11T00:54:10;27.00;;;15.23;;
76053;SDS011;64752;48.870;9.082;2022-11-11T00:56:36;16.88;;;11.30;;
76053;SDS011;64752;48.870;9.082;2022-11-11T00:59:05;22.27;;;12.52;;
76053;SDS011;64752;48.870;9.082;2022-11-11T01:01:32;22.70;;;11.82;;
76053;SDS011;64752;48.870;9.082;2022-11-11T01:03:59;24.90;;;13.07;;
76053;SDS011;64752;48.870;9.082;2022-11-11T01:06:25;22.92;;;12.25;;
76053;SDS011;64752;48.870;9.082;2022-11-11T01:08:51;26.20;;;11.73;;
76053;SDS011;64752;48.870;9.082;2022-11-11T01:11:20;32.55;;;15.88;;
76053;SDS011;64752;48.870;9.082;2022-11-11T01:13:47;32.05;;;13.63;;
76053;SDS011;64752;48.870;9.082;2022-11-11T01:16:14;28.92;;;12.88;;
76053;SDS011;64752;48.870;9.082;2022-11-11T01:18:45;25.35;;;14.38;;
76053;SDS011;64752;48.870;9.082;2022-11-11T01:21:11;30.33;;;15.85;;
76053;SDS011;64752;48.870;9.082;2022-11-11T01:23:39;27.55;;;15.13;;
76053;SDS011;64752;48.870;9.082;2022-11-11T01:26:10;21.63;;;13.68;;
76053;SDS011;64752;48.870;9.082;2022-11-11T01:28:38;26.33;;;12.38;;
76053;SDS011;64752;48.870;9.082;2022-11-11T01:31:08;24.55;;;11.88;;
76053;SDS011;64752;48.870;9.082;2022-11-11T01:33:35;24.00;;;12.32;;
76053;SDS011;64752;48.870;9.082;2022-11-11T01:36:05;22.57;;;12.00;;
76053;SDS011;64752;48.870;9.082;2022-11-11T01:38:37;19.13;;;11.32;;
76053;SDS011;64752;48.870;9.082;2022-11-11T01:41:13;18.52;;;10.02;;
76053;SDS011;64752;48.870;9.082;2022-11-11T01:43:59;21.17;;;12.02;;
76053;SDS011;64752;48.870;9.082;2022-11-11T01:46:33;24.42;;;12.38;;
76053;SDS011;64752;48.870;9.082;2022-11-11T01:57:10;24.33;;;9.90;;
76053;SDS011;64752;48.870;9.082;2022-11-11T01:59:44;23.02;;;9.55;;
76053;SDS011;64752;48.870;9.082;2022-11-11T02:02:15;16.15;;;9.55;;
76053;SDS011;64752;48.870;9.082;2022-11-11T02:04:45;19.58;;;10.77;;
76053;SDS011;64752;48.870;9.082;2022-11-11T02:07:36;18.00;;;9.38;;
76053;SDS011;64752;48.870;9.082;2022-11-11T02:10:04;28.90;;;12.93;;
76053;SDS011;64752;48.870;9.082;2022-11-11T02:12:32;23.52;;;12.73;;
76053;SDS011;64752;48.870;9.082;2022-11-11T02:15:16;25.40;;;12.30;;
76053;SDS011;64752;48.870;9.082;2022-11-11T02:17:42;26.77;;;13.95;;
76053;SDS011;64752;48.870;9.082;2022-11-11T02:20:07;37.80;;;15.43;;
76053;SDS011;64752;48.870;9.082;2022-11-11T02:22:48;26.13;;;13.30;;
76053;SDS011;64752;48.870;9.082;2022-11-11T02:25:25;32.97;;;17.60;;
76053;SDS011;64752;48.870;9.082;2022-11-11T02:27:56;41.58;;;20.65;;
76053;SDS011;64752;48.870;9.082;2022-11-11T02:30:28;35.88;;;18.92;;
76053;SDS011;64752;48.870;9.082;2022-11-11T02:32:53;33.53;;;17.90;;
76053;SDS011;64752;48.870;9.082;2022-11-11T02:35:35;26.60;;;15.10;;
76053;SDS011;64752;48.870;9.082;2022-11-11T02:38:06;31.77;;;14.75;;
76053;SDS011;64752;48.870;9.082;2022-11-11T02:40:41;33.35;;;17.55;;
76053;SDS011;64752;48.870;9.082;2022-11-11T02:43:34;35.80;;;17.33;;
76053;SDS011;64752;48.870;9.082;2022-11-11T02:46:02;20.52;;;12.32;;
76053;SDS011;64752;48.870;9.082;2022-11-11T02:48:29;17.92;;;9.25;;
76053;SDS011;64752;48.870;9.082;2022-11-11T02:50:55;19.30;;;11.02;;
76053;SDS011;64752;48.870;9.082;2022-11-11T02:53:21;18.95;;;10.88;;
76053;SDS011;64752;48.870;9.082;2022-11-11T02:55:46;23.95;;;13.95;;
76053;SDS011;64752;48.870;9.082;2022-11-11T02:58:12;25.42;;;12.80;;
76053;SDS011;64752;48.870;9.082;2022-11-11T03:00:38;24.63;;;12.73;;
76053;SDS011;64752;48.870;9.082;2022-11-11T03:03:04;22.25;;;13.55;;
76053;SDS011;64752;48.870;9.082;2022-11-11T03:05:30;25.95;;;12.35;;
76053;SDS011;64752;48.870;9.082;2022-11-11T03:07:56;27.60;;;14.93;;
76053;SDS011;64752;48.870;9.082;2022-11-11T03:10:21;29.95;;;15.70;;
76053;SDS011;64752;48.870;9.082;2022-11-11T03:12:47;32.22;;;15.63;;
76053;SDS011;64752;48.870;9.082;2022-11-11T03:15:12;23.75;;;13.65;;
76053;SDS011;64752;48.870;9.082;2022-11-11T03:17:37;26.90;;;12.73;;
76053;SDS011;64752;48.870;9.082;2022-11-11T03:20:17;22.60;;;12.45;;
76053;SDS011;64752;48.870;9.082;2022-11-11T03:23:13;19.45;;;11.38;;
76053;SDS011;64752;48.870;9.082;2022-11-11T03:25:52;29.00;;;12.85;;
76053;SDS011;64752;48.870;9.082;2022-11-11T03:29:00;20.73;;;11.43;;
76053;SDS011;64752;48.870;9.082;2022-11-11T03:31:34;23.08;;;13.15;;
76053;SDS011;64752;48.870;9.082;2022-11-11T03:36:55;38.53;;;19.00;;
76053;SDS011;64752;48.870;9.082;2022-11-11T03:40:02;27.83;;;17.15;;
76053;SDS011;64752;48.870;9.082;2022-11-11T04:04:19;29.00;;;15.85;;
76053;SDS011;64752;48.870;9.082;2022-11-11T04:07:04;35.92;;;18.80;;
76053;SDS011;64752;48.870;9.082;2022-11-11T04:10:26;43.05;;;20.55;;
76053;SDS011;64752;48.870;9.082;2022-11-11T04:14:23;31.80;;;17.80;;
76053;SDS011;64752;48.870;9.082;2022-11-11T04:31:00;35.23;;;17.13;;
76053;SDS011;64752;48.870;9.082;2022-11-11T04:37:47;56.38;;;26.75;;
76053;SDS011;64752;48.870;9.082;2022-11-11T04:40:37;60.50;;;29.20;;
76053;SDS011;64752;48.870;9.082;2022-11-11T04:43:21;46.08;;;24.52;;
76053;SDS011;64752;48.870;9.082;2022-11-11T04:45:58;40.47;;;21.25;;
76053;SDS011;64752;48.870;9.082;2022-11-11T04:58:42;25.67;;;14.02;;
76053;SDS011;64752;48.870;9.082;2022-11-11T05:01:57;20.58;;;13.23;;
76053;SDS011;64752;48.870;9.082;2022-11-11T05:08:35;28.57;;;16.87;;
76053;SDS011;64752;48.870;9.082;2022-11-11T05:11:59;34.85;;;19.00;;
76053;SDS011;64752;48.870;9.082;2022-11-11T05:31:57;49.90;;;23.80;;
76053;SDS011;64752;48.870;9.082;2022-11-11T05:35:11;49.08;;;24.90;;
76053;SDS011;64752;48.870;9.082;2022-11-11T05:37:51;33.65;;;22.40;;
76053;SDS011;64752;48.870;9.082;2022-11-11T05:40:35;33.33;;;21.23;;
76053;SDS011;64752;48.870;9.082;2022-11-11T05:43:11;38.95;;;20.88;;
76053;SDS011;64752;48.870;9.082;2022-11-11T05:48:35;38.33;;;20.92;;
76053;SDS011;64752;48.870;9.082;2022-11-11T05:51:48;44.60;;;24.05;;
76053;SDS011;64752;48.870;9.082;2022-11-11T05:57:24;46.63;;;25.65;;
76053;SDS011;64752;48.870;9.082;2022-11-11T05:59:52;38.03;;;23.90;;
76053;SDS011;64752;48.870;9.082;2022-11-11T06:02:25;42.47;;;24.85;;
76053;SDS011;64752;48.870;9.082;2022-11-11T06:05:10;39.85;;;24.65;;
76053;SDS011;64752;48.870;9.082;2022-11-11T06:07:39;34.17;;;21.02;;
76053;SDS011;64752;48.870;9.082;2022-11-11T06:10:10;33.00;;;20.42;;
76053;SDS011;64752;48.870;9.082;2022-11-11T06:12:57;38.40;;;22.00;;
76053;SDS011;64752;48.870;9.082;2022-11-11T06:18:32;31.73;;;19.33;;
76053;SDS011;64752;48.870;9.082;2022-11-11T06:21:07;31.88;;;17.83;;
76053;SDS011;64752;48.870;9.082;2022-11-11T06:23:48;66.30;;;26.45;;
76053;SDS011;64752;48.870;9.082;2022-11-11T06:26:27;31.98;;;20.35;;
76053;SDS011;64752;48.870;9.082;2022-11-11T06:29:02;30.85;;;19.20;;
76053;SDS011;64752;48.870;9.082;2022-11-11T06:32:10;55.75;;;20.67;;
76053;SDS011;64752;48.870;9.082;2022-11-11T06:59:02;23.00;;;13.68;;
76053;SDS011;64752;48.870;9.082;2022-11-11T07:08:34;26.23;;;14.05;;
76053;SDS011;64752;48.870;9.082;2022-11-11T07:11:33;20.10;;;14.02;;
76053;SDS011;64752;48.870;9.082;2022-11-11T07:13:58;23.35;;;14.25;;
76053;SDS011;64752;48.870;9.082;2022-11-11T07:16:24;23.60;;;13.70;;
76053;SDS011;64752;48.870;9.082;2022-11-11T07:18:49;21.67;;;13.35;;
76053;SDS011;64752;48.870;9.082;2022-11-11T07:21:14;18.50;;;11.77;;
76053;SDS011;64752;48.870;9.082;2022-11-11T07:23:39;16.88;;;11.80;;
76053;SDS011;64752;48.870;9.082;2022-11-11T07:26:05;21.38;;;12.38;;
76053;SDS011;64752;48.870;9.082;2022-11-11T07:28:30;21.05;;;12.13;;
76053;SDS011;64752;48.870;9.082;2022-11-11T07:30:55;19.35;;;13.00;;
76053;SDS011;64752;48.870;9.082;2022-11-11T07:33:21;18.77;;;11.80;;
76053;SDS011;64752;48.870;9.082;2022-11-11T07:35:46;20.52;;;12.18;;
76053;SDS011;64752;48.870;9.082;2022-11-11T07:38:11;15.98;;;11.27;;
76053;SDS011;64752;48.870;9.082;2022-11-11T07:40:37;20.52;;;11.60;;
76053;SDS011;64752;48.870;9.082;2022-11-11T07:43:02;20.90;;;14.18;;
76053;SDS011;64752;48.870;9.082;2022-11-11T07:45:27;20.90;;;13.20;;
76053;SDS011;64752;48.870;9.082;2022-11-11T07:47:52;18.75;;;10.48;;
76053;SDS011;64752;48.870;9.082;2022-11-11T07:50:18;19.73;;;10.82;;
76053;SDS011;64752;48.870;9.082;2022-11-11T07:52:47;25.40;;;11.40;;
76053;SDS011;64752;48.870;9.082;2022-11-11T07:55:12;19.98;;;10.60;;
76053;SDS011;64752;48.870;9.082;2022-11-11T07:57:38;14.73;;;10.95;;
76053;SDS011;64752;48.870;9.082;2022-11-11T08:00:03;18.83;;;12.00;;
76053;SDS011;64752;48.870;9.082;2022-11-11T08:02:29;16.23;;;9.37;;
76053;SDS011;64752;48.870;9.082;2022-11-11T08:04:54;20.20;;;12.35;;
76053;SDS011;64752;48.870;9.082;2022-11-11T08:07:20;18.23;;;10.18;;
76053;SDS011;64752;48.870;9.082;2022-11-11T08:09:45;14.07;;;9.35;;
76053;SDS011;64752;48.870;9.082;2022-11-11T08:12:10;26.10;;;9.25;;
76053;SDS011;64752;48.870;9.082;2022-11-11T08:14:54;24.52;;;9.55;;
76053;SDS011;64752;48.870;9.082;2022-11-11T08:17:19;13.48;;;6.80;;
76053;SDS011;64752;48.870;9.082;2022-11-11T08:19:45;13.32;;;6.28;;
76053;SDS011;64752;48.870;9.082;2022-11-11T08:22:10;18.75;;;6.72;;
76053;SDS011;64752;48.870;9.082;2022-11-11T08:24:35;19.08;;;8.25;;
76053;SDS011;64752;48.870;9.082;2022-11-11T08:27:01;13.88;;;6.70;;
76053;SDS011;64752;48.870;9.082;2022-11-11T08:29:26;15.23;;;6.60;;
76053;SDS011;64752;48.870;9.082;2022-11-11T08:31:51;12.93;;;7.05;;
76053;SDS011;64752;48.870;9.082;2022-11-11T08:34:17;13.43;;;7.07;;
76053;SDS011;64752;48.870;9.082;2022-11-11T08:36:42;11.30;;;6.35;;
76053;SDS011;64752;48.870;9.082;2022-11-11T08:39:08;9.60;;;6.22;;
76053;SDS011;64752;48.870;9.082;2022-11-11T08:41:33;15.65;;;6.10;;
76053;SDS011;64752;48.870;9.082;2022-11-11T08:43:58;11.48;;;5.40;;
76053;SDS011;64752;48.870;9.082;2022-11-11T08:46:24;15.68;;;6.60;;
76053;SDS011;64752;48.870;9.082;2022-11-11T08:48:50;12.40;;;6.22;;
76053;SDS011;64752;48.870;9.082;2022-11-11T08:51:15;13.70;;;8.95;;
76053;SDS011;64752;48.870;9.082;2022-11-11T08:53:41;11.20;;;6.35;;
76053;SDS011;64752;48.870;9.082;2022-11-11T08:56:07;11.23;;;4.70;;
76053;SDS011;64752;48.870;9.082;2022-11-11T08:58:32;17.57;;;5.00;;
76053;SDS011;64752;48.870;9.082;2022-11-11T09:00:58;7.60;;;4.87;;
76053;SDS011;64752;48.870;9.082;2022-11-11T09:03:25;8.38;;;5.13;;
76053;SDS011;64752;48.870;9.082;2022-11-11T09:05:51;9.60;;;5.25;;
76053;SDS011;64752;48.870;9.082;2022-11-11T09:08:16;12.63;;;4.77;;
76053;SDS011;64752;48.870;9.082;2022-11-11T09:10:41;9.40;;;4.43;;
76053;SDS011;64752;48.870;9.082;2022-11-11T09:13:07;8.10;;;3.90;;
76053;SDS011;64752;48.870;9.082;2022-11-11T09:15:33;7.87;;;3.80;;
76053;SDS011;64752;48.870;9.082;2022-11-11T09:17:58;7.60;;;3.70;;
76053;SDS011;64752;48.870;9.082;2022-11-11T09:22:50;11.20;;;4.30;;
76053;SDS011;64752;48.870;9.082;2022-11-11T09:25:17;7.68;;;3.80;;
76053;SDS011;64752;48.870;9.082;2022-11-11T09:27:43;8.63;;;3.88;;
76053;SDS011;64752;48.870;9.082;2022-11-11T09:30:09;6.13;;;3.10;;
76053;SDS011;64752;48.870;9.082;2022-11-11T09:32:35;10.18;;;4.15;;
76053;SDS011;64752;48.870;9.082;2022-11-11T09:35:01;6.75;;;4.15;;
76053;SDS011;64752;48.870;9.082;2022-11-11T09:37:28;9.43;;;3.70;;
76053;SDS011;64752;48.870;9.082;2022-11-11T09:39:53;8.37;;;3.50;;
76053;SDS011;64752;48.870;9.082;2022-11-11T09:42:36;8.85;;;4.00;;
76053;SDS011;64752;48.870;9.082;2022-11-11T09:48:01;7.20;;;3.47;;
76053;SDS011;64752;48.870;9.082;2022-11-11T09:50:49;7.57;;;3.33;;
76053;SDS011;64752;48.870;9.082;2022-11-11T09:55:57;7.10;;;3.30;;
76053;SDS011;64752;48.870;9.082;2022-11-11T09:58:38;6.97;;;3.13;;
76053;SDS011;64752;48.870;9.082;2022-11-11T10:01:09;8.52;;;3.90;;
76053;SDS011;64752;48.870;9.082;2022-11-11T10:03:39;9.82;;;4.22;;
76053;SDS011;64752;48.870;9.082;2022-11-11T10:06:13;9.45;;;3.42;;
76053;SDS011;64752;48.870;9.082;2022-11-11T10:14:16;12.85;;;3.58;;
76053;SDS011;64752;48.870;9.082;2022-11-11T10:21:52;8.20;;;3.67;;
76053;SDS011;64752;48.870;9.082;2022-11-11T10:24:40;7.10;;;3.55;;
76053;SDS011;64752;48.870;9.082;2022-11-11T10:27:11;7.30;;;3.70;;
76053;SDS011;64752;48.870;9.082;2022-11-11T10:29:42;7.30;;;3.50;;
76053;SDS011;64752;48.870;9.082;2022-11-11T10:32:10;6.78;;;3.25;;
76053;SDS011;64752;48.870;9.082;2022-11-11T10:34:42;8.77;;;3.30;;
76053;SDS011;64752;48.870;9.082;2022-11-11T10:37:18;7.73;;;3.63;;
76053;SDS011;64752;48.870;9.082;2022-11-11T10:42:30;8.82;;;3.92;;
76053;SDS011;64752;48.870;9.082;2022-11-11T10:44:57;11.13;;;4.10;;
76053;SDS011;64752;48.870;9.082;2022-11-11T10:47:38;6.32;;;3.90;;
76053;SDS011;64752;48.870;9.082;2022-11-11T10:50:17;9.27;;;4.65;;
76053;SDS011;64752;48.870;9.082;2022-11-11T10:55:48;6.68;;;4.32;;
76053;SDS011;64752;48.870;9.082;2022-11-11T10:58:32;9.10;;;4.38;;
76053;SDS011;64752;48.870;9.082;2022-11-11T11:01:02;8.57;;;4.68;;
76053;SDS011;64752;48.870;9.082;2022-11-11T11:03:33;10.55;;;4.97;;
76053;SDS011;64752;48.870;9.082;2022-11-11T11:06:19;8.32;;;4.00;;
76053;SDS011;64752;48.870;9.082;2022-11-11T11:11:40;10.60;;;4.28;;
76053;SDS011;64752;48.870;9.082;2022-11-11T11:14:19;9.32;;;4.25;;
76053;SDS011;64752;48.870;9.082;2022-11-11T11:16:53;8.73;;;4.25;;
76053;SDS011;64752;48.870;9.082;2022-11-11T11:19:25;9.18;;;4.25;;
76053;SDS011;64752;48.870;9.082;2022-11-11T11:24:25;12.25;;;4.45;;
76053;SDS011;64752;48.870;9.082;2022-11-11T11:27:00;11.13;;;4.53;;
76053;SDS011;64752;48.870;9.082;2022-11-11T11:34:49;11.50;;;4.53;;
76053;SDS011;64752;48.870;9.082;2022-11-11T11:37:16;9.75;;;4.90;;
76053;SDS011;64752;48.870;9.082;2022-11-11T11:39:42;6.85;;;4.10;;
76053;SDS011;64752;48.870;9.082;2022-11-11T11:42:08;8.07;;;3.75;;
76053;SDS011;64752;48.870;9.082;2022-11-11T11:44:52;8.48;;;4.22;;
76053;SDS011;64752;48.870;9.082;2022-11-11T11:47:22;10.20;;;4.70;;
76053;SDS011;64752;48.870;9.082;2022-11-11T11:50:00;9.20;;;4.10;;
76053;SDS011;64752;48.870;9.082;2022-11-11T11:52:51;6.85;;;3.95;;
76053;SDS011;64752;48.870;9.082;2022-11-11T11:55:38;7.72;;;3.90;;
76053;SDS011;64752;48.870;9.082;2022-11-11T11:58:11;7.72;;;3.97;;
76053;SDS011;64752;48.870;9.082;2022-11-11T12:11:50;9.98;;;4.05;;
76053;SDS011;64752;48.870;9.082;2022-11-11T12:15:09;7.80;;;3.80;;
76053;SDS011;64752;48.870;9.082;2022-11-11T12:20:17;10.23;;;3.95;;
76053;SDS011;64752;48.870;9.082;2022-11-11T12:26:16;8.75;;;3.88;;
76053;SDS011;64752;48.870;9.082;2022-11-11T12:39:01;5.40;;;3.17;;
76053;SDS011;64752;48.870;9.082;2022-11-11T12:44:09;7.93;;;3.85;;
76053;SDS011;64752;48.870;9.082;2022-11-11T12:46:46;8.00;;;3.30;;
76053;SDS011;64752;48.870;9.082;2022-11-11T12:49:42;7.78;;;3.22;;
76053;SDS011;64752;48.870;9.082;2022-11-11T12:52:15;5.72;;;3.20;;
76053;SDS011;64752;48.870;9.082;2022-11-11T12:54:50;9.98;;;3.60;;
76053;SDS011;64752;48.870;9.082;2022-11-11T12:57:37;11.10;;;3.03;;
76053;SDS011;64752;48.870;9.082;2022-11-11T13:00:16;8.32;;;3.60;;
76053;SDS011;64752;48.870;9.082;2022-11-11T13:08:41;8.43;;;3.83;;
76053;SDS011;64752;48.870;9.082;2022-11-11T13:14:04;6.82;;;3.80;;
76053;SDS011;64752;48.870;9.082;2022-11-11T13:16:48;6.45;;;3.85;;
76053;SDS011;64752;48.870;9.082;2022-11-11T13:19:22;6.00;;;3.38;;
76053;SDS011;64752;48.870;9.082;2022-11-11T13:22:00;7.38;;;3.75;;
76053;SDS011;64752;48.870;9.082;2022-11-11T13:24:31;10.00;;;3.42;;
76053;SDS011;64752;48.870;9.082;2022-11-11T13:27:06;9.00;;;3.03;;
76053;SDS011;64752;48.870;9.082;2022-11-11T13:32:40;7.88;;;3.67;;
76053;SDS011;64752;48.870;9.082;2022-11-11T13:37:53;6.40;;;2.88;;
76053;SDS011;64752;48.870;9.082;2022-11-11T13:41:02;4.57;;;2.90;;
76053;SDS011;64752;48.870;9.082;2022-11-11T13:45:54;5.72;;;2.92;;
76053;SDS011;64752;48.870;9.082;2022-11-11T13:48:33;6.57;;;2.92;;
76053;SDS011;64752;48.870;9.082;2022-11-11T13:51:22;7.28;;;3.38;;
76053;SDS011;64752;48.870;9.082;2022-11-11T13:54:34;7.05;;;3.28;;
76053;SDS011;64752;48.870;9.082;2022-11-11T13:57:04;7.72;;;3.38;;
76053;SDS011;64752;48.870;9.082;2022-11-11T13:59:34;10.50;;;3.03;;
76053;SDS011;64752;48.870;9.082;2022-11-11T14:18:27;7.50;;;3.08;;
76053;SDS011;64752;48.870;9.082;2022-11-11T14:20:58;6.60;;;3.55;;
76053;SDS011;64752;48.870;9.082;2022-11-11T14:30:58;8.73;;;3.78;;
76053;SDS011;64752;48.870;9.082;2022-11-11T14:39:23;8.40;;;3.58;;
76053;SDS011;64752;48.870;9.082;2022-11-11T14:41:53;7.18;;;3.70;;
76053;SDS011;64752;48.870;9.082;2022-11-11T14:57:36;8.32;;;3.15;;
76053;SDS011;64752;48.870;9.082;2022-11-11T15:00:04;7.70;;;3.60;;
76053;SDS011;64752;48.870;9.082;2022-11-11T15:02:37;6.30;;;3.70;;
76053;SDS011;64752;48.870;9.082;2022-11-11T15:05:13;9.18;;;3.50;;
76053;SDS011;64752;48.870;9.082;2022-11-11T15:10:39;6.63;;;3.83;;
76053;SDS011;64752;48.870;9.082;2022-11-11T15:19:00;8.45;;;3.10;;
76053;SDS011;64752;48.870;9.082;2022-11-11T15:21:50;8.63;;;3.58;;
76053;SDS011;64752;48.870;9.082;2022-11-11T15:27:32;11.82;;;4.47;;
76053;SDS011;64752;48.870;9.082;2022-11-11T15:30:17;8.48;;;3.60;;
76053;SDS011;64752;48.870;9.082;2022-11-11T15:38:14;7.28;;;4.07;;
76053;SDS011;64752;48.870;9.082;2022-11-11T15:40:43;7.78;;;3.42;;
76053;SDS011;64752;48.870;9.082;2022-11-11T15:43:14;8.05;;;4.22;;
76053;SDS011;64752;48.870;9.082;2022-11-11T15:45:43;9.73;;;4.50;;
76053;SDS011;64752;48.870;9.082;2022-11-11T15:48:16;9.65;;;4.03;;
76053;SDS011;64752;48.870;9.082;2022-11-11T15:50:44;6.85;;;3.60;;
76053;SDS011;64752;48.870;9.082;2022-11-11T15:53:13;7.05;;;3.70;;
76053;SDS011;64752;48.870;9.082;2022-11-11T15:55:50;6.32;;;3.55;;
76053;SDS011;64752;48.870;9.082;2022-11-11T15:58:23;11.00;;;5.22;;
76053;SDS011;64752;48.870;9.082;2022-11-11T16:00:53;12.40;;;5.78;;
76053;SDS011;64752;48.870;9.082;2022-11-11T16:03:29;15.10;;;6.22;;
76053;SDS011;64752;48.870;9.082;2022-11-11T16:05:58;8.27;;;5.95;;
76053;SDS011;64752;48.870;9.082;2022-11-11T16:08:26;10.30;;;5.75;;
76053;SDS011;64752;48.870;9.082;2022-11-11T16:10:53;9.30;;;6.63;;
76053;SDS011;64752;48.870;9.082;2022-11-11T16:21:10;11.23;;;5.90;;
76053;SDS011;64752;48.870;9.082;2022-11-11T16:23:41;13.15;;;8.07;;
76053;SDS011;64752;48.870;9.082;2022-11-11T16:26:07;17.92;;;6.65;;
76053;SDS011;64752;48.870;9.082;2022-11-11T16:28:39;15.60;;;7.32;;
76053;SDS011;64752;48.870;9.082;2022-11-11T16:31:19;13.27;;;7.90;;
76053;SDS011;64752;48.870;9.082;2022-11-11T16:33:53;14.55;;;8.15;;
76053;SDS011;64752;48.870;9.082;2022-11-11T16:36:19;16.42;;;9.75;;
76053;SDS011;64752;48.870;9.082;2022-11-11T16:38:44;12.57;;;7.50;;
76053;SDS011;64752;48.870;9.082;2022-11-11T16:41:25;12.65;;;7.85;;
76053;SDS011;64752;48.870;9.082;2022-11-11T16:43:52;15.63;;;8.13;;
76053;SDS011;64752;48.870;9.082;2022-11-11T16:51:51;16.33;;;9.98;;
76053;SDS011;64752;48.870;9.082;2022-11-11T16:56:47;18.52;;;10.50;;
76053;SDS011;64752;48.870;9.082;2022-11-11T16:59:34;16.38;;;10.55;;
76053;SDS011;64752;48.870;9.082;2022-11-11T17:02:15;14.63;;;10.27;;
76053;SDS011;64752;48.870;9.082;2022-11-11T17:04:59;21.42;;;12.98;;
76053;SDS011;64752;48.870;9.082;2022-11-11T17:07:40;23.15;;;14.43;;
76053;SDS011;64752;48.870;9.082;2022-11-11T17:12:33;20.55;;;14.18;;
76053;SDS011;64752;48.870;9.082;2022-11-11T17:15:06;20.10;;;14.48;;
76053;SDS011;64752;48.870;9.082;2022-11-11T17:17:34;21.15;;;13.93;;
76053;SDS011;64752;48.870;9.082;2022-11-11T17:20:02;24.90;;;13.57;;
76053;SDS011;64752;48.870;9.082;2022-11-11T17:22:33;36.25;;;23.80;;
76053;SDS011;64752;48.870;9.082;2022-11-11T17:24:58;30.50;;;18.17;;
76053;SDS011;64752;48.870;9.082;2022-11-11T17:27:24;37.72;;;22.23;;
76053;SDS011;64752;48.870;9.082;2022-11-11T17:29:49;31.92;;;19.45;;
76053;SDS011;64752;48.870;9.082;2022-11-11T17:32:14;26.33;;;16.20;;
76053;SDS011;64752;48.870;9.082;2022-11-11T17:34:39;25.88;;;14.70;;
76053;SDS011;64752;48.870;9.082;2022-11-11T17:37:07;35.50;;;19.08;;
76053;SDS011;64752;48.870;9.082;2022-11-11T17:39:42;37.33;;;20.23;;
76053;SDS011;64752;48.870;9.082;2022-11-11T17:42:08;39.72;;;19.92;;
76053;SDS011;64752;48.870;9.082;2022-11-11T17:44:34;32.03;;;18.38;;
76053;SDS011;64752;48.870;9.082;2022-11-11T17:46:59;28.92;;;18.48;;
76053;SDS011;64752;48.870;9.082;2022-11-11T17:49:25;40.42;;;24.45;;
76053;SDS011;64752;48.870;9.082;2022-11-11T17:51:52;39.95;;;22.38;;
76053;SDS011;64752;48.870;9.082;2022-11-11T17:54:18;54.28;;;31.42;;
76053;SDS011;64752;48.870;9.082;2022-11-11T17:56:43;55.25;;;32.88;;
76053;SDS011;64752;48.870;9.082;2022-11-11T18:01:35;36.65;;;23.27;;
76053;SDS011;64752;48.870;9.082;2022-11-11T18:04:01;42.65;;;24.88;;
76053;SDS011;64752;48.870;9.082;2022-11-11T18:06:28;42.00;;;24.13;;
76053;SDS011;64752;48.870;9.082;2022-11-11T18:08:55;43.58;;;22.70;;
76053;SDS011;64752;48.870;9.082;2022-11-11T18:11:20;99.95;;;47.70;;
76053;SDS011;64752;48.870;9.082;2022-11-11T18:13:46;53.42;;;29.67;;
76053;SDS011;64752;48.870;9.082;2022-11-11T18:16:17;38.72;;;23.73;;
76053;SDS011;64752;48.870;9.082;2022-11-11T18:18:44;48.95;;;27.10;;
76053;SDS011;64752;48.870;9.082;2022-11-11T18:21:09;46.92;;;27.83;;
76053;SDS011;64752;48.870;9.082;2022-11-11T18:23:35;43.60;;;25.77;;
76053;SDS011;64752;48.870;9.082;2022-11-11T18:26:02;54.38;;;30.75;;
76053;SDS011;64752;48.870;9.082;2022-11-11T18:28:29;52.35;;;33.17;;
76053;SDS011;64752;48.870;9.082;2022-11-11T18:31:17;60.47;;;35.00;;
76053;SDS011;64752;48.870;9.082;2022-11-11T18:33:42;45.40;;;27.30;;
76053;SDS011;64752;48.870;9.082;2022-11-11T18:36:15;57.55;;;35.03;;
76053;SDS011;64752;48.870;9.082;2022-11-11T18:38:42;59.38;;;33.05;;
76053;SDS011;64752;48.870;9.082;2022-11-11T18:46:05;41.92;;;23.42;;
76053;SDS011;64752;48.870;9.082;2022-11-11T18:50:56;50.55;;;28.13;;
76053;SDS011;64752;48.870;9.082;2022-11-11T18:53:22;61.88;;;27.70;;
76053;SDS011;64752;48.870;9.082;2022-11-11T18:55:47;58.92;;;27.67;;
76053;SDS011;64752;48.870;9.082;2022-11-11T18:58:12;74.07;;;34.42;;
76053;SDS011;64752;48.870;9.082;2022-11-11T19:00:38;56.78;;;30.33;;
76053;SDS011;64752;48.870;9.082;2022-11-11T19:03:03;61.85;;;33.63;;
76053;SDS011;64752;48.870;9.082;2022-11-11T19:05:28;79.65;;;39.45;;
76053;SDS011;64752;48.870;9.082;2022-11-11T19:07:54;67.90;;;38.67;;
76053;SDS011;64752;48.870;9.082;2022-11-11T19:10:19;67.15;;;39.83;;
76053;SDS011;64752;48.870;9.082;2022-11-11T19:12:45;59.70;;;36.63;;
76053;SDS011;64752;48.870;9.082;2022-11-11T19:15:11;50.30;;;30.50;;
76053;SDS011;64752;48.870;9.082;2022-11-11T19:17:37;54.40;;;38.05;;
76053;SDS011;64752;48.870;9.082;2022-11-11T19:20:03;60.70;;;38.28;;
76053;SDS011;64752;48.870;9.082;2022-11-11T19:24:54;75.13;;;41.10;;
76053;SDS011;64752;48.870;9.082;2022-11-11T19:27:20;87.43;;;49.15;;
76053;SDS011;64752;48.870;9.082;2022-11-11T19:29:45;76.75;;;46.95;;
76053;SDS011;64752;48.870;9.082;2022-11-11T19:32:11;77.93;;;54.33;;
76053;SDS011;64752;48.870;9.082;2022-11-11T19:34:36;67.68;;;45.75;;
76053;SDS011;64752;48.870;9.082;2022-11-11T19:37:01;89.93;;;57.25;;
76053;SDS011;64752;48.870;9.082;2022-11-11T19:39:27;64.03;;;41.47;;
76053;SDS011;64752;48.870;9.082;2022-11-11T19:41:52;54.53;;;37.22;;
76053;SDS011;64752;48.870;9.082;2022-11-11T19:44:17;77.50;;;47.20;;
76053;SDS011;64752;48.870;9.082;2022-11-11T19:46:43;39.90;;;27.27;;
76053;SDS011;64752;48.870;9.082;2022-11-11T19:49:08;35.53;;;23.15;;
76053;SDS011;64752;48.870;9.082;2022-11-11T19:51:34;62.10;;;33.20;;
76053;SDS011;64752;48.870;9.082;2022-11-11T19:53:59;71.90;;;40.40;;
76053;SDS011;64752;48.870;9.082;2022-11-11T19:56:27;67.10;;;35.58;;
76053;SDS011;64752;48.870;9.082;2022-11-11T19:58:54;48.45;;;29.17;;